sensor_id;sensor_type;location;lat;lon;timestamp;pressure;altitude;pressure_sealevel;temperature;humidity
56558;BME280;43358;50.356;12.456;2023-04-21T00:00:40;95367;;;8.8;90.6
56558;BME280;43358;50.356;12.456;2023-04-21T00:01:42;95355;;;8.8;90.4
56558;BME280;43358;50.356;12.456;2023-04-21T00:02:44;95356;;;8.8;90.5
56558;BME280;43358;50.356;12.456;2023-04-21T00:03:46;95357;;;8.8;90.4
56558;BME280;43358;50.356;12.456;2023-04-21T00:04:48;95351;;;8.8;90.2
56558;BME280;43358;50.356;12.456;2023-04-21T00:05:50;95351;;;8.8;90.2
56558;BME280;43358;50.356;12.456;2023-04-21T00:06:52;95352;;;8.8;90.3
56558;BME280;43358;50.356;12.456;2023-04-21T00:08:15;95352;;;8.8;90.4
56558;BME280;43358;50.356;12.456;2023-04-21T00:09:15;95347;;;8.8;90.5
56558;BME280;43358;50.356;12.456;2023-04-21T00:10:15;95345;;;8.8;90.7
56558;BME280;43358;50.356;12.456;2023-04-21T00:11:15;95341;;;8.8;90.2
56558;BME280;43358;50.356;12.456;2023-04-21T00:12:15;95345;;;8.8;90.7
56558;BME280;43358;50.356;12.456;2023-04-21T00:13:15;95345;;;8.8;90.2
56558;BME280;43358;50.356;12.456;2023-04-21T00:14:15;95349;;;8.8;90.4
56558;BME280;43358;50.356;12.456;2023-04-21T00:15:15;95347;;;8.8;90.4
56558;BME280;43358;50.356;12.456;2023-04-21T00:16:15;95352;;;8.8;90.3
56558;BME280;43358;50.356;12.456;2023-04-21T00:17:15;95349;;;8.8;90.2
56558;BME280;43358;50.356;12.456;2023-04-21T00:18:15;95346;;;8.8;90
56558;BME280;43358;50.356;12.456;2023-04-21T00:19:16;95349;;;8.8;90
56558;BME280;43358;50.356;12.456;2023-04-21T00:20:18;95346;;;8.9;90.1
56558;BME280;43358;50.356;12.456;2023-04-21T00:21:20;95340;;;8.9;90.2
56558;BME280;43358;50.356;12.456;2023-04-21T00:22:22;95346;;;8.9;90
56558;BME280;43358;50.356;12.456;2023-04-21T00:23:24;95348;;;8.9;90
56558;BME280;43358;50.356;12.456;2023-04-21T00:24:26;95342;;;8.9;90
56558;BME280;43358;50.356;12.456;2023-04-21T00:25:28;95345;;;8.9;90
56558;BME280;43358;50.356;12.456;2023-04-21T00:26:30;95345;;;8.9;90.1
56558;BME280;43358;50.356;12.456;2023-04-21T00:27:32;95350;;;8.9;90
56558;BME280;43358;50.356;12.456;2023-04-21T00:28:36;95338;;;8.9;90.1
56558;BME280;43358;50.356;12.456;2023-04-21T00:29:38;95342;;;8.9;90.2
56558;BME280;43358;50.356;12.456;2023-04-21T00:30:40;95338;;;8.9;90.3
56558;BME280;43358;50.356;12.456;2023-04-21T00:31:42;95333;;;8.9;90.3
56558;BME280;43358;50.356;12.456;2023-04-21T00:32:44;95336;;;8.9;90.3
56558;BME280;43358;50.356;12.456;2023-04-21T00:33:46;95334;;;8.9;90.3
56558;BME280;43358;50.356;12.456;2023-04-21T00:34:48;95332;;;8.9;90.2
56558;BME280;43358;50.356;12.456;2023-04-21T00:35:50;95335;;;8.9;90.2
56558;BME280;43358;50.356;12.456;2023-04-21T00:36:52;95333;;;8.9;90.1
56558;BME280;43358;50.356;12.456;2023-04-21T00:37:54;95329;;;8.9;90.1
56558;BME280;43358;50.356;12.456;2023-04-21T00:38:56;95322;;;8.9;90.3
56558;BME280;43358;50.356;12.456;2023-04-21T00:39:58;95322;;;8.9;90.3
56558;BME280;43358;50.356;12.456;2023-04-21T00:41:00;95324;;;8.9;90.2
56558;BME280;43358;50.356;12.456;2023-04-21T00:42:02;95317;;;8.9;90.3
56558;BME280;43358;50.356;12.456;2023-04-21T00:43:04;95321;;;8.9;90.3
56558;BME280;43358;50.356;12.456;2023-04-21T00:44:06;95317;;;8.9;90.2
56558;BME280;43358;50.356;12.456;2023-04-21T00:45:08;95320;;;8.9;90.3
56558;BME280;43358;50.356;12.456;2023-04-21T00:46:10;95316;;;8.8;90.4
56558;BME280;43358;50.356;12.456;2023-04-21T00:47:12;95314;;;8.8;90.6
56558;BME280;43358;50.356;12.456;2023-04-21T00:48:14;95320;;;8.8;90.5
56558;BME280;43358;50.356;12.456;2023-04-21T00:49:16;95320;;;8.8;90.5
56558;BME280;43358;50.356;12.456;2023-04-21T00:50:18;95324;;;8.8;90.4
56558;BME280;43358;50.356;12.456;2023-04-21T00:51:20;95314;;;8.8;90.3
56558;BME280;43358;50.356;12.456;2023-04-21T00:52:22;95318;;;8.8;90.4
56558;BME280;43358;50.356;12.456;2023-04-21T00:53:24;95319;;;8.8;90.4
56558;BME280;43358;50.356;12.456;2023-04-21T00:54:27;95318;;;8.8;90.2
56558;BME280;43358;50.356;12.456;2023-04-21T00:55:29;95317;;;8.8;90.5
56558;BME280;43358;50.356;12.456;2023-04-21T00:56:32;95317;;;8.8;90.5
56558;BME280;43358;50.356;12.456;2023-04-21T00:57:35;95319;;;8.8;90.5
56558;BME280;43358;50.356;12.456;2023-04-21T00:58:37;95314;;;8.8;90.6
56558;BME280;43358;50.356;12.456;2023-04-21T00:59:39;95318;;;8.8;90.5
56558;BME280;43358;50.356;12.456;2023-04-21T01:00:42;95318;;;8.8;90.6
56558;BME280;43358;50.356;12.456;2023-04-21T01:01:44;95313;;;8.8;90.6
56558;BME280;43358;50.356;12.456;2023-04-21T01:02:46;95316;;;8.8;90.6
56558;BME280;43358;50.356;12.456;2023-04-21T01:03:48;95309;;;8.8;90.6
56558;BME280;43358;50.356;12.456;2023-04-21T01:04:50;95310;;;8.7;90.6
56558;BME280;43358;50.356;12.456;2023-04-21T01:05:52;95309;;;8.7;90.6
56558;BME280;43358;50.356;12.456;2023-04-21T01:07:56;95310;;;8.7;90.7
56558;BME280;43358;50.356;12.456;2023-04-21T01:08:58;95308;;;8.7;90.8
56558;BME280;43358;50.356;12.456;2023-04-21T01:10:00;95307;;;8.7;90.8
56558;BME280;43358;50.356;12.456;2023-04-21T01:11:07;95304;;;8.7;91.2
56558;BME280;43358;50.356;12.456;2023-04-21T01:12:04;95308;;;8.6;91.4
56558;BME280;43358;50.356;12.456;2023-04-21T01:13:06;95297;;;8.6;91.3
56558;BME280;43358;50.356;12.456;2023-04-21T01:14:08;95303;;;8.6;91.4
56558;BME280;43358;50.356;12.456;2023-04-21T01:15:10;95302;;;8.6;91.4
56558;BME280;43358;50.356;12.456;2023-04-21T01:16:14;95302;;;8.6;91.3
56558;BME280;43358;50.356;12.456;2023-04-21T01:17:14;95300;;;8.6;91.4
56558;BME280;43358;50.356;12.456;2023-04-21T01:18:16;95297;;;8.6;91.5
56558;BME280;43358;50.356;12.456;2023-04-21T01:19:18;95295;;;8.6;91.5
56558;BME280;43358;50.356;12.456;2023-04-21T01:20:20;95299;;;8.6;91.5
56558;BME280;43358;50.356;12.456;2023-04-21T01:21:22;95305;;;8.5;91.6
56558;BME280;43358;50.356;12.456;2023-04-21T01:22:24;95294;;;8.6;91.6
56558;BME280;43358;50.356;12.456;2023-04-21T01:23:26;95299;;;8.6;91.5
56558;BME280;43358;50.356;12.456;2023-04-21T01:25:15;95298;;;8.5;91.8
56558;BME280;43358;50.356;12.456;2023-04-21T01:26:16;95295;;;8.5;91.8
56558;BME280;43358;50.356;12.456;2023-04-21T01:27:16;95296;;;8.5;91.9
56558;BME280;43358;50.356;12.456;2023-04-21T01:29:15;95296;;;8.5;92.1
56558;BME280;43358;50.356;12.456;2023-04-21T01:30:15;95287;;;8.5;92.1
56558;BME280;43358;50.356;12.456;2023-04-21T01:31:15;95286;;;8.5;92.1
56558;BME280;43358;50.356;12.456;2023-04-21T01:32:16;95290;;;8.4;91.9
56558;BME280;43358;50.356;12.456;2023-04-21T01:33:15;95288;;;8.4;91.9
56558;BME280;43358;50.356;12.456;2023-04-21T01:34:15;95289;;;8.4;92.3
56558;BME280;43358;50.356;12.456;2023-04-21T01:35:15;95284;;;8.4;92.2
56558;BME280;43358;50.356;12.456;2023-04-21T01:36:15;95291;;;8.4;92.5
56558;BME280;43358;50.356;12.456;2023-04-21T01:37:17;95287;;;8.4;92.4
56558;BME280;43358;50.356;12.456;2023-04-21T01:38:15;95289;;;8.4;92.4
56558;BME280;43358;50.356;12.456;2023-04-21T01:39:15;95286;;;8.4;92.7
56558;BME280;43358;50.356;12.456;2023-04-21T01:40:15;95289;;;8.3;92.6
56558;BME280;43358;50.356;12.456;2023-04-21T01:41:17;95292;;;8.4;92.6
56558;BME280;43358;50.356;12.456;2023-04-21T01:42:15;95297;;;8.3;92.5
56558;BME280;43358;50.356;12.456;2023-04-21T01:43:16;95294;;;8.3;92.6
56558;BME280;43358;50.356;12.456;2023-04-21T01:44:15;95293;;;8.3;92.6
56558;BME280;43358;50.356;12.456;2023-04-21T01:45:15;95297;;;8.3;92.6
56558;BME280;43358;50.356;12.456;2023-04-21T01:46:17;95299;;;8.3;92.5
56558;BME280;43358;50.356;12.456;2023-04-21T01:47:16;95299;;;8.3;92.4
56558;BME280;43358;50.356;12.456;2023-04-21T01:48:18;95297;;;8.3;92.4
56558;BME280;43358;50.356;12.456;2023-04-21T01:49:21;95289;;;8.3;92.6
56558;BME280;43358;50.356;12.456;2023-04-21T01:50:23;95289;;;8.3;92.8
56558;BME280;43358;50.356;12.456;2023-04-21T01:51:25;95295;;;8.3;92.5
56558;BME280;43358;50.356;12.456;2023-04-21T01:52:27;95296;;;8.3;92.5
56558;BME280;43358;50.356;12.456;2023-04-21T01:53:29;95289;;;8.3;92.5
56558;BME280;43358;50.356;12.456;2023-04-21T01:54:32;95291;;;8.3;92.7
56558;BME280;43358;50.356;12.456;2023-04-21T01:55:35;95293;;;8.3;92.7
56558;BME280;43358;50.356;12.456;2023-04-21T01:56:37;95292;;;8.3;92.6
56558;BME280;43358;50.356;12.456;2023-04-21T01:57:40;95287;;;8.3;92.5
56558;BME280;43358;50.356;12.456;2023-04-21T01:58:42;95289;;;8.3;92.7
56558;BME280;43358;50.356;12.456;2023-04-21T01:59:44;95295;;;8.3;92.7
56558;BME280;43358;50.356;12.456;2023-04-21T02:00:46;95292;;;8.3;92.7
56558;BME280;43358;50.356;12.456;2023-04-21T02:01:48;95294;;;8.2;92.5
56558;BME280;43358;50.356;12.456;2023-04-21T02:02:50;95287;;;8.2;92.7
56558;BME280;43358;50.356;12.456;2023-04-21T02:03:52;95291;;;8.3;92.7
56558;BME280;43358;50.356;12.456;2023-04-21T02:04:54;95296;;;8.3;92.6
56558;BME280;43358;50.356;12.456;2023-04-21T02:05:56;95291;;;8.2;92.6
56558;BME280;43358;50.356;12.456;2023-04-21T02:06:58;95284;;;8.2;92.6
56558;BME280;43358;50.356;12.456;2023-04-21T02:08:00;95290;;;8.2;92.6
56558;BME280;43358;50.356;12.456;2023-04-21T02:09:02;95296;;;8.2;92.8
56558;BME280;43358;50.356;12.456;2023-04-21T02:10:04;95287;;;8.2;92.7
56558;BME280;43358;50.356;12.456;2023-04-21T02:11:06;95288;;;8.2;92.8
56558;BME280;43358;50.356;12.456;2023-04-21T02:12:08;95290;;;8.2;92.7
56558;BME280;43358;50.356;12.456;2023-04-21T02:13:10;95286;;;8.2;92.7
56558;BME280;43358;50.356;12.456;2023-04-21T02:14:12;95290;;;8.2;92.5
56558;BME280;43358;50.356;12.456;2023-04-21T02:15:14;95291;;;8.2;92.6
56558;BME280;43358;50.356;12.456;2023-04-21T02:16:16;95294;;;8.2;92.6
56558;BME280;43358;50.356;12.456;2023-04-21T02:17:18;95288;;;8.2;92.5
56558;BME280;43358;50.356;12.456;2023-04-21T02:18:20;95292;;;8.2;92.6
56558;BME280;43358;50.356;12.456;2023-04-21T02:19:22;95286;;;8.2;92.4
56558;BME280;43358;50.356;12.456;2023-04-21T02:20:24;95291;;;8.2;92.5
56558;BME280;43358;50.356;12.456;2023-04-21T02:21:26;95289;;;8.2;92.6
56558;BME280;43358;50.356;12.456;2023-04-21T02:22:28;95285;;;8.2;92.4
56558;BME280;43358;50.356;12.456;2023-04-21T02:23:30;95286;;;8.2;92.4
56558;BME280;43358;50.356;12.456;2023-04-21T02:24:32;95282;;;8.2;92.4
56558;BME280;43358;50.356;12.456;2023-04-21T02:25:36;95289;;;8.2;92.3
56558;BME280;43358;50.356;12.456;2023-04-21T02:26:38;95287;;;8.2;92.3
56558;BME280;43358;50.356;12.456;2023-04-21T02:27:40;95284;;;8.2;92.3
56558;BME280;43358;50.356;12.456;2023-04-21T02:28:42;95289;;;8.2;92.3
56558;BME280;43358;50.356;12.456;2023-04-21T02:29:44;95287;;;8.2;92.5
56558;BME280;43358;50.356;12.456;2023-04-21T02:30:46;95289;;;8.1;92.6
56558;BME280;43358;50.356;12.456;2023-04-21T02:31:48;95290;;;8.1;92.6
56558;BME280;43358;50.356;12.456;2023-04-21T02:32:50;95290;;;8.1;92.8
56558;BME280;43358;50.356;12.456;2023-04-21T02:33:52;95284;;;8;92.5
56558;BME280;43358;50.356;12.456;2023-04-21T02:34:54;95286;;;8;92.3
56558;BME280;43358;50.356;12.456;2023-04-21T02:35:56;95290;;;8;92.6
56558;BME280;43358;50.356;12.456;2023-04-21T02:36:58;95295;;;8;92.9
56558;BME280;43358;50.356;12.456;2023-04-21T02:38:00;95287;;;8;92.5
56558;BME280;43358;50.356;12.456;2023-04-21T02:39:02;95293;;;8;92.5
56558;BME280;43358;50.356;12.456;2023-04-21T02:40:04;95296;;;8;93.1
56558;BME280;43358;50.356;12.456;2023-04-21T02:41:06;95289;;;8;92.8
56558;BME280;43358;50.356;12.456;2023-04-21T02:42:08;95292;;;8;92.8
56558;BME280;43358;50.356;12.456;2023-04-21T02:43:10;95293;;;8;93
56558;BME280;43358;50.356;12.456;2023-04-21T02:44:12;95289;;;8;92.9
56558;BME280;43358;50.356;12.456;2023-04-21T02:45:14;95291;;;8;92.9
56558;BME280;43358;50.356;12.456;2023-04-21T02:46:16;95295;;;8;92.8
56558;BME280;43358;50.356;12.456;2023-04-21T02:47:18;95292;;;8;92.9
56558;BME280;43358;50.356;12.456;2023-04-21T02:48:20;95291;;;8;92.6
56558;BME280;43358;50.356;12.456;2023-04-21T02:49:22;95291;;;8;92.9
56558;BME280;43358;50.356;12.456;2023-04-21T02:50:24;95290;;;8;92.8
56558;BME280;43358;50.356;12.456;2023-04-21T02:51:26;95292;;;8;92.8
56558;BME280;43358;50.356;12.456;2023-04-21T02:52:29;95293;;;8;92.6
56558;BME280;43358;50.356;12.456;2023-04-21T02:53:32;95287;;;8;92.8
56558;BME280;43358;50.356;12.456;2023-04-21T02:54:35;95289;;;8;92.6
56558;BME280;43358;50.356;12.456;2023-04-21T02:55:37;95289;;;8;92.5
56558;BME280;43358;50.356;12.456;2023-04-21T02:56:39;95288;;;8;92.6
56558;BME280;43358;50.356;12.456;2023-04-21T02:57:41;95288;;;8;92.4
56558;BME280;43358;50.356;12.456;2023-04-21T02:58:43;95290;;;8;92.5
56558;BME280;43358;50.356;12.456;2023-04-21T02:59:46;95288;;;8;92.4
56558;BME280;43358;50.356;12.456;2023-04-21T03:00:48;95286;;;8;92.5
56558;BME280;43358;50.356;12.456;2023-04-21T03:01:50;95287;;;8;92.2
56558;BME280;43358;50.356;12.456;2023-04-21T03:02:52;95285;;;8;92.2
56558;BME280;43358;50.356;12.456;2023-04-21T03:03:54;95286;;;8;92.3
56558;BME280;43358;50.356;12.456;2023-04-21T03:06:01;95291;;;8;92.3
56558;BME280;43358;50.356;12.456;2023-04-21T03:07:02;95291;;;8;92.5
56558;BME280;43358;50.356;12.456;2023-04-21T03:08:04;95293;;;8;92.4
56558;BME280;43358;50.356;12.456;2023-04-21T03:09:06;95296;;;8;92.3
56558;BME280;43358;50.356;12.456;2023-04-21T03:10:08;95291;;;8;92.3
56558;BME280;43358;50.356;12.456;2023-04-21T03:11:10;95289;;;8;92.1
56558;BME280;43358;50.356;12.456;2023-04-21T03:12:12;95285;;;8;92
56558;BME280;43358;50.356;12.456;2023-04-21T03:13:14;95290;;;8;92.2
56558;BME280;43358;50.356;12.456;2023-04-21T03:14:16;95287;;;7.9;92.4
56558;BME280;43358;50.356;12.456;2023-04-21T03:15:18;95295;;;7.9;92.4
56558;BME280;43358;50.356;12.456;2023-04-21T03:16:20;95289;;;7.9;92.4
56558;BME280;43358;50.356;12.456;2023-04-21T03:17:22;95292;;;7.9;92.4
56558;BME280;43358;50.356;12.456;2023-04-21T03:18:24;95293;;;7.9;92.4
56558;BME280;43358;50.356;12.456;2023-04-21T03:19:26;95295;;;7.9;92.4
56558;BME280;43358;50.356;12.456;2023-04-21T03:20:28;95296;;;7.9;92.6
56558;BME280;43358;50.356;12.456;2023-04-21T03:21:30;95294;;;7.9;92.6
56558;BME280;43358;50.356;12.456;2023-04-21T03:22:32;95302;;;7.9;92.3
56558;BME280;43358;50.356;12.456;2023-04-21T03:23:34;95295;;;7.9;92.1
56558;BME280;43358;50.356;12.456;2023-04-21T03:24:36;95299;;;7.8;92.2
56558;BME280;43358;50.356;12.456;2023-04-21T03:25:38;95296;;;7.9;92.4
56558;BME280;43358;50.356;12.456;2023-04-21T03:26:40;95299;;;7.8;92.4
56558;BME280;43358;50.356;12.456;2023-04-21T03:27:43;95299;;;7.8;92.6
56558;BME280;43358;50.356;12.456;2023-04-21T03:28:46;95299;;;7.9;93.1
56558;BME280;43358;50.356;12.456;2023-04-21T03:29:48;95297;;;7.8;92.8
56558;BME280;43358;50.356;12.456;2023-04-21T03:30:50;95301;;;7.9;92.5
56558;BME280;43358;50.356;12.456;2023-04-21T03:31:52;95300;;;7.9;92.4
56558;BME280;43358;50.356;12.456;2023-04-21T03:32:54;95299;;;7.9;92.2
56558;BME280;43358;50.356;12.456;2023-04-21T03:33:56;95300;;;7.9;92.3
56558;BME280;43358;50.356;12.456;2023-04-21T03:34:58;95299;;;7.9;92.5
56558;BME280;43358;50.356;12.456;2023-04-21T03:36:00;95299;;;7.8;92.5
56558;BME280;43358;50.356;12.456;2023-04-21T03:37:02;95297;;;7.8;92.3
56558;BME280;43358;50.356;12.456;2023-04-21T03:38:04;95301;;;7.8;92.4
56558;BME280;43358;50.356;12.456;2023-04-21T03:39:06;95303;;;7.8;92.6
56558;BME280;43358;50.356;12.456;2023-04-21T03:40:08;95299;;;7.8;92.6
56558;BME280;43358;50.356;12.456;2023-04-21T03:41:10;95303;;;7.8;92.5
56558;BME280;43358;50.356;12.456;2023-04-21T03:42:12;95298;;;7.8;92.7
56558;BME280;43358;50.356;12.456;2023-04-21T03:43:14;95307;;;7.8;92.4
56558;BME280;43358;50.356;12.456;2023-04-21T03:44:16;95300;;;7.7;92.8
56558;BME280;43358;50.356;12.456;2023-04-21T03:45:18;95299;;;7.7;92.7
56558;BME280;43358;50.356;12.456;2023-04-21T03:46:20;95296;;;7.7;92.6
56558;BME280;43358;50.356;12.456;2023-04-21T03:47:22;95297;;;7.7;92.7
56558;BME280;43358;50.356;12.456;2023-04-21T03:48:24;95296;;;7.7;92.3
56558;BME280;43358;50.356;12.456;2023-04-21T03:49:26;95295;;;7.7;92.2
56558;BME280;43358;50.356;12.456;2023-04-21T03:50:28;95297;;;7.7;92.8
56558;BME280;43358;50.356;12.456;2023-04-21T03:51:30;95298;;;7.7;92.7
56558;BME280;43358;50.356;12.456;2023-04-21T03:52:32;95296;;;7.7;92.8
56558;BME280;43358;50.356;12.456;2023-04-21T03:53:34;95299;;;7.6;92.8
56558;BME280;43358;50.356;12.456;2023-04-21T03:54:36;95299;;;7.6;93
56558;BME280;43358;50.356;12.456;2023-04-21T03:55:38;95300;;;7.6;93
56558;BME280;43358;50.356;12.456;2023-04-21T03:56:40;95304;;;7.6;93
56558;BME280;43358;50.356;12.456;2023-04-21T03:57:42;95303;;;7.6;93.1
56558;BME280;43358;50.356;12.456;2023-04-21T03:58:46;95304;;;7.6;93
56558;BME280;43358;50.356;12.456;2023-04-21T03:59:48;95301;;;7.6;92.9
56558;BME280;43358;50.356;12.456;2023-04-21T04:01:52;95302;;;7.6;92.2
56558;BME280;43358;50.356;12.456;2023-04-21T04:02:54;95299;;;7.6;92.1
56558;BME280;43358;50.356;12.456;2023-04-21T04:03:56;95300;;;7.6;92.4
56558;BME280;43358;50.356;12.456;2023-04-21T04:04:58;95302;;;7.6;92.1
56558;BME280;43358;50.356;12.456;2023-04-21T04:06:00;95299;;;7.6;91.9
56558;BME280;43358;50.356;12.456;2023-04-21T04:07:02;95301;;;7.7;92.3
56558;BME280;43358;50.356;12.456;2023-04-21T04:08:04;95301;;;7.7;92.2
56558;BME280;43358;50.356;12.456;2023-04-21T04:09:06;95302;;;7.7;92.2
56558;BME280;43358;50.356;12.456;2023-04-21T04:10:08;95302;;;7.7;92
56558;BME280;43358;50.356;12.456;2023-04-21T04:11:10;95297;;;7.7;92.2
56558;BME280;43358;50.356;12.456;2023-04-21T04:12:12;95300;;;7.7;92
56558;BME280;43358;50.356;12.456;2023-04-21T04:14:16;95303;;;7.7;91.6
56558;BME280;43358;50.356;12.456;2023-04-21T04:15:18;95303;;;7.7;91.7
56558;BME280;43358;50.356;12.456;2023-04-21T04:19:28;95305;;;7.7;92.1
56558;BME280;43358;50.356;12.456;2023-04-21T04:20:28;95305;;;7.7;92.1
56558;BME280;43358;50.356;12.456;2023-04-21T04:21:30;95307;;;7.7;92.4
56558;BME280;43358;50.356;12.456;2023-04-21T04:22:32;95306;;;7.7;92.1
56558;BME280;43358;50.356;12.456;2023-04-21T04:23:34;95307;;;7.7;92.1
56558;BME280;43358;50.356;12.456;2023-04-21T04:24:36;95305;;;7.7;92.3
56558;BME280;43358;50.356;12.456;2023-04-21T04:25:38;95304;;;7.6;92.3
56558;BME280;43358;50.356;12.456;2023-04-21T04:26:40;95305;;;7.6;92.2
56558;BME280;43358;50.356;12.456;2023-04-21T04:27:43;95305;;;7.6;92.1
56558;BME280;43358;50.356;12.456;2023-04-21T04:28:46;95304;;;7.6;92.3
56558;BME280;43358;50.356;12.456;2023-04-21T04:29:48;95304;;;7.6;92.3
56558;BME280;43358;50.356;12.456;2023-04-21T04:30:50;95306;;;7.6;92.4
56558;BME280;43358;50.356;12.456;2023-04-21T04:31:52;95309;;;7.6;92.5
56558;BME280;43358;50.356;12.456;2023-04-21T04:32:54;95311;;;7.6;92.3
56558;BME280;43358;50.356;12.456;2023-04-21T04:33:56;95306;;;7.6;92.5
56558;BME280;43358;50.356;12.456;2023-04-21T04:34:58;95304;;;7.6;92.2
56558;BME280;43358;50.356;12.456;2023-04-21T04:36:00;95304;;;7.6;92.3
56558;BME280;43358;50.356;12.456;2023-04-21T04:37:03;95307;;;7.6;92.6
56558;BME280;43358;50.356;12.456;2023-04-21T04:38:06;95305;;;7.6;92.2
56558;BME280;43358;50.356;12.456;2023-04-21T04:39:08;95306;;;7.6;92.1
56558;BME280;43358;50.356;12.456;2023-04-21T04:40:10;95306;;;7.7;91.9
56558;BME280;43358;50.356;12.456;2023-04-21T04:41:12;95309;;;7.7;92.4
56558;BME280;43358;50.356;12.456;2023-04-21T04:42:14;95305;;;7.6;92.2
56558;BME280;43358;50.356;12.456;2023-04-21T04:43:16;95306;;;7.6;92.1
56558;BME280;43358;50.356;12.456;2023-04-21T04:44:18;95307;;;7.6;92.1
56558;BME280;43358;50.356;12.456;2023-04-21T04:45:20;95306;;;7.7;91.9
56558;BME280;43358;50.356;12.456;2023-04-21T04:46:22;95309;;;7.6;92
56558;BME280;43358;50.356;12.456;2023-04-21T04:47:24;95308;;;7.6;92.1
56558;BME280;43358;50.356;12.456;2023-04-21T04:48:26;95310;;;7.6;91.9
56558;BME280;43358;50.356;12.456;2023-04-21T04:49:28;95310;;;7.7;92.1
56558;BME280;43358;50.356;12.456;2023-04-21T04:50:30;95311;;;7.7;91.9
56558;BME280;43358;50.356;12.456;2023-04-21T04:51:32;95309;;;7.7;91.6
56558;BME280;43358;50.356;12.456;2023-04-21T04:52:34;95306;;;7.7;91.9
56558;BME280;43358;50.356;12.456;2023-04-21T04:53:36;95304;;;7.7;91.9
56558;BME280;43358;50.356;12.456;2023-04-21T04:54:38;95306;;;7.7;91.7
56558;BME280;43358;50.356;12.456;2023-04-21T04:55:40;95304;;;7.7;91.7
56558;BME280;43358;50.356;12.456;2023-04-21T04:56:43;95304;;;7.7;91.7
56558;BME280;43358;50.356;12.456;2023-04-21T04:57:48;95305;;;7.7;91.9
56558;BME280;43358;50.356;12.456;2023-04-21T04:58:50;95308;;;7.7;91.8
56558;BME280;43358;50.356;12.456;2023-04-21T04:59:53;95310;;;7.7;91.5
56558;BME280;43358;50.356;12.456;2023-04-21T05:00:54;95312;;;7.7;91.7
56558;BME280;43358;50.356;12.456;2023-04-21T05:01:56;95316;;;7.7;91.7
56558;BME280;43358;50.356;12.456;2023-04-21T05:02:58;95308;;;7.7;91.7
56558;BME280;43358;50.356;12.456;2023-04-21T05:04:01;95311;;;7.7;91.8
56558;BME280;43358;50.356;12.456;2023-04-21T05:05:03;95310;;;7.7;91.4
56558;BME280;43358;50.356;12.456;2023-04-21T05:06:05;95310;;;7.7;91.6
56558;BME280;43358;50.356;12.456;2023-04-21T05:07:07;95310;;;7.7;91.9
56558;BME280;43358;50.356;12.456;2023-04-21T05:08:09;95312;;;7.7;91.8
56558;BME280;43358;50.356;12.456;2023-04-21T05:09:11;95312;;;7.8;92.1
56558;BME280;43358;50.356;12.456;2023-04-21T05:10:13;95320;;;7.8;92
56558;BME280;43358;50.356;12.456;2023-04-21T05:11:15;95320;;;7.8;91.9
56558;BME280;43358;50.356;12.456;2023-04-21T05:13:19;95319;;;7.8;92
56558;BME280;43358;50.356;12.456;2023-04-21T05:14:21;95318;;;7.8;91.9
56558;BME280;43358;50.356;12.456;2023-04-21T05:15:23;95322;;;7.8;91.8
56558;BME280;43358;50.356;12.456;2023-04-21T05:17:28;95320;;;7.8;92.1
56558;BME280;43358;50.356;12.456;2023-04-21T05:18:30;95317;;;7.8;92.4
56558;BME280;43358;50.356;12.456;2023-04-21T05:20:15;95321;;;7.8;92.1
56558;BME280;43358;50.356;12.456;2023-04-21T05:21:21;95317;;;7.8;92.1
56558;BME280;43358;50.356;12.456;2023-04-21T05:22:15;95320;;;7.8;92.1
56558;BME280;43358;50.356;12.456;2023-04-21T05:23:15;95317;;;7.8;91.8
56558;BME280;43358;50.356;12.456;2023-04-21T05:24:15;95318;;;7.8;92
56558;BME280;43358;50.356;12.456;2023-04-21T05:25:15;95320;;;7.9;92
56558;BME280;43358;50.356;12.456;2023-04-21T05:26:49;95319;;;7.9;91.5
56558;BME280;43358;50.356;12.456;2023-04-21T05:27:51;95320;;;7.9;91.8
56558;BME280;43358;50.356;12.456;2023-04-21T05:28:53;95324;;;7.9;91.7
56558;BME280;43358;50.356;12.456;2023-04-21T05:29:55;95326;;;8;91.7
56558;BME280;43358;50.356;12.456;2023-04-21T05:30:57;95322;;;8;91.3
56558;BME280;43358;50.356;12.456;2023-04-21T05:31:59;95318;;;8;91.5
56558;BME280;43358;50.356;12.456;2023-04-21T05:33:01;95321;;;8;91.4
56558;BME280;43358;50.356;12.456;2023-04-21T05:34:03;95322;;;8;91.5
56558;BME280;43358;50.356;12.456;2023-04-21T05:35:05;95322;;;8;91.4
56558;BME280;43358;50.356;12.456;2023-04-21T05:36:08;95323;;;8;91.7
56558;BME280;43358;50.356;12.456;2023-04-21T05:37:09;95324;;;8;91.8
56558;BME280;43358;50.356;12.456;2023-04-21T05:38:11;95322;;;8;91.6
56558;BME280;43358;50.356;12.456;2023-04-21T05:39:13;95325;;;8;91.5
56558;BME280;43358;50.356;12.456;2023-04-21T05:40:15;95322;;;8.1;91.4
56558;BME280;43358;50.356;12.456;2023-04-21T05:41:17;95323;;;8.1;91.1
56558;BME280;43358;50.356;12.456;2023-04-21T05:42:19;95320;;;8.2;91.1
56558;BME280;43358;50.356;12.456;2023-04-21T05:43:21;95325;;;8.2;91
56558;BME280;43358;50.356;12.456;2023-04-21T05:44:23;95320;;;8.2;91.1
56558;BME280;43358;50.356;12.456;2023-04-21T05:45:25;95322;;;8.3;91.5
56558;BME280;43358;50.356;12.456;2023-04-21T05:46:27;95322;;;8.3;91.4
56558;BME280;43358;50.356;12.456;2023-04-21T05:47:29;95325;;;8.3;90.7
56558;BME280;43358;50.356;12.456;2023-04-21T05:48:31;95329;;;8.3;90.8
56558;BME280;43358;50.356;12.456;2023-04-21T05:49:33;95328;;;8.4;91
56558;BME280;43358;50.356;12.456;2023-04-21T05:50:35;95329;;;8.4;90.4
56558;BME280;43358;50.356;12.456;2023-04-21T05:51:38;95329;;;8.4;90.1
56558;BME280;43358;50.356;12.456;2023-04-21T05:52:40;95332;;;8.5;90.2
56558;BME280;43358;50.356;12.456;2023-04-21T05:53:44;95335;;;8.5;89.8
56558;BME280;43358;50.356;12.456;2023-04-21T05:54:45;95335;;;8.6;89.6
56558;BME280;43358;50.356;12.456;2023-04-21T05:55:48;95335;;;8.6;89.4
56558;BME280;43358;50.356;12.456;2023-04-21T05:57:52;95338;;;8.6;89.4
56558;BME280;43358;50.356;12.456;2023-04-21T06:00:59;95335;;;8.8;88.9
56558;BME280;43358;50.356;12.456;2023-04-21T06:03:03;95336;;;8.8;88.8
56558;BME280;43358;50.356;12.456;2023-04-21T06:04:05;95332;;;8.8;89
56558;BME280;43358;50.356;12.456;2023-04-21T06:05:07;95331;;;8.8;89.2
56558;BME280;43358;50.356;12.456;2023-04-21T06:07:12;95332;;;8.9;89
56558;BME280;43358;50.356;12.456;2023-04-21T06:08:35;95335;;;9;88.5
56558;BME280;43358;50.356;12.456;2023-04-21T06:09:22;95336;;;9;88.2
56558;BME280;43358;50.356;12.456;2023-04-21T06:10:25;95335;;;9.1;88.3
56558;BME280;43358;50.356;12.456;2023-04-21T06:11:27;95334;;;9.1;88.4